createdAt,value
2023-05-06T00:08:32.090Z,79.63
2023-05-06T00:18:32.044Z,79.88
2023-05-06T00:28:32.039Z,79.98
2023-05-06T00:38:32.052Z,80.34
2023-05-06T00:48:32.029Z,80.61
2023-05-06T00:58:32.094Z,80.76
2023-05-06T01:08:32.734Z,80.85
2023-05-06T01:18:33.352Z,81.00
2023-05-06T01:28:33.174Z,81.13
2023-05-06T01:38:33.225Z,81.12
2023-05-06T01:48:33.206Z,81.23
2023-05-06T01:58:33.183Z,81.40
2023-05-06T02:08:45.833Z,81.51
2023-05-06T02:18:46.428Z,81.72
2023-05-06T02:28:46.404Z,81.88
2023-05-06T02:38:46.259Z,82.02
2023-05-06T02:48:46.332Z,82.10
2023-05-06T02:58:46.310Z,82.18
2023-05-06T03:08:46.890Z,82.26
2023-05-06T03:18:47.453Z,82.36
2023-05-06T03:28:47.875Z,82.51
2023-05-06T03:38:48.627Z,82.63
2023-05-06T03:48:50.008Z,82.72
2023-05-06T03:58:50.824Z,82.72
2023-05-06T04:08:51.838Z,82.80
2023-05-06T04:18:52.783Z,82.75
2023-05-06T04:28:53.893Z,82.78
2023-05-06T04:38:54.879Z,82.68
2023-05-06T04:48:57.186Z,82.59
2023-05-06T04:58:57.909Z,82.54
2023-05-06T05:08:59.575Z,82.30
2023-05-06T05:19:03.507Z,82.07
2023-05-06T05:29:05.378Z,81.99
2023-05-06T05:39:07.168Z,81.69
2023-05-06T05:49:07.698Z,81.44
2023-05-06T05:59:08.784Z,79.74
2023-05-06T06:09:10.374Z,73.58
2023-05-06T06:19:11.096Z,67.93
2023-05-06T06:29:12.021Z,60.45
2023-05-06T06:39:12.554Z,56.08
2023-05-06T06:49:12.638Z,54.76
2023-05-06T06:59:12.560Z,51.25
2023-05-06T07:09:13.021Z,47.53
2023-05-06T07:19:13.654Z,41.65
2023-05-06T07:29:13.650Z,37.19
2023-05-06T07:39:13.629Z,33.45
2023-05-06T07:49:13.653Z,30.15
2023-05-06T07:59:13.741Z,27.92
2023-05-06T08:09:22.305Z,26.79
2023-05-06T08:19:15.743Z,24.47
2023-05-06T08:29:15.723Z,22.80
2023-05-06T08:39:15.899Z,20.48
2023-05-06T08:49:17.354Z,20.31
2023-05-06T08:59:17.770Z,19.90
2023-05-06T09:09:17.835Z,19.21
2023-05-06T09:19:17.915Z,17.82
2023-05-06T09:29:17.832Z,17.17
2023-05-06T09:39:17.933Z,16.98
2023-05-06T09:49:17.861Z,17.05
2023-05-06T09:59:18.123Z,21.16
2023-05-06T10:09:18.073Z,18.42
2023-05-06T10:19:17.928Z,20.50
2023-05-06T10:29:17.909Z,22.43
2023-05-06T10:39:17.992Z,25.72
2023-05-06T10:49:21.696Z,27.16
2023-05-06T10:59:22.034Z,28.21
2023-05-06T11:09:22.078Z,28.64
2023-05-06T11:19:22.075Z,29.20
2023-05-06T11:29:24.134Z,29.35
2023-05-06T11:39:24.042Z,29.69
2023-05-06T11:49:24.099Z,30.12
2023-05-06T11:59:24.090Z,30.41
2023-05-06T12:09:24.058Z,30.74
2023-05-06T12:19:24.136Z,30.99
2023-05-06T12:29:24.173Z,31.33
2023-05-06T12:39:24.152Z,31.95
2023-05-06T12:49:24.124Z,32.57
2023-05-06T12:59:24.218Z,32.81
2023-05-06T13:09:24.242Z,32.82
2023-05-06T13:19:32.370Z,33.23
2023-05-06T13:29:26.340Z,33.49
2023-05-06T13:39:26.312Z,33.42
2023-05-06T13:49:26.484Z,33.47
2023-05-06T13:59:26.274Z,34.38
2023-05-06T14:09:26.330Z,35.11
2023-05-06T14:19:26.626Z,35.71
2023-05-06T14:29:26.390Z,36.60
2023-05-06T14:39:26.299Z,37.49
2023-05-06T14:49:26.398Z,39.42
2023-05-06T14:59:26.478Z,44.61
2023-05-06T15:09:26.821Z,49.51
2023-05-06T15:19:27.536Z,52.48
2023-05-06T15:29:30.521Z,54.80
2023-05-06T15:39:30.345Z,56.32
2023-05-06T15:59:32.415Z,57.04
2023-05-06T16:09:32.476Z,57.04
2023-05-06T16:19:34.369Z,57.47
2023-05-06T16:29:34.589Z,57.83
2023-05-06T16:39:34.555Z,58.75
2023-05-06T16:49:34.479Z,59.89
2023-05-06T16:59:34.492Z,60.76
2023-05-06T17:09:34.528Z,61.09
2023-05-06T17:19:34.551Z,61.22
2023-05-06T17:29:34.463Z,61.24
2023-05-06T17:39:34.687Z,61.35
2023-05-06T17:49:34.657Z,61.66
2023-05-06T17:59:34.763Z,61.79
2023-05-06T18:09:35.045Z,62.04
2023-05-06T18:19:35.699Z,62.56
2023-05-06T18:29:35.681Z,62.85
2023-05-06T18:39:35.601Z,63.24
2023-05-06T18:49:36.009Z,63.79
2023-05-06T18:59:35.747Z,64.14
2023-05-06T19:09:36.676Z,64.60
2023-05-06T19:19:36.772Z,65.28
2023-05-06T19:29:36.833Z,66.09
2023-05-06T19:39:36.850Z,66.92
2023-05-06T19:49:36.837Z,67.10
2023-05-06T19:59:36.881Z,67.58
2023-05-06T20:09:36.779Z,67.93
2023-05-06T20:19:37.275Z,68.17
2023-05-06T20:29:37.979Z,68.38
2023-05-06T20:39:37.984Z,68.64
2023-05-06T20:49:37.803Z,68.89
2023-05-06T20:59:37.854Z,69.16
2023-05-06T21:09:37.907Z,69.55
2023-05-06T21:19:37.848Z,69.84
2023-05-06T21:29:37.880Z,70.24
2023-05-06T21:39:37.840Z,70.53
2023-05-06T21:49:37.887Z,70.85
2023-05-06T21:59:37.915Z,71.28
2023-05-06T22:09:38.025Z,71.49
2023-05-06T22:19:38.108Z,71.62
2023-05-06T22:29:39.048Z,71.83
2023-05-06T22:39:52.455Z,72.01
2023-05-06T22:49:52.976Z,72.40
2023-05-06T22:59:53.052Z,72.41
2023-05-06T23:09:53.016Z,72.54
2023-05-06T23:19:53.081Z,72.57
2023-05-06T23:29:53.092Z,72.70
2023-05-06T23:39:53.107Z,72.82
2023-05-06T23:49:53.059Z,73.01
2023-05-06T23:59:53.104Z,73.15
